»·PEaware :: N122LW KMCC-KSBX

N122LW :: KMCC-KSBX

FLIGHT INFORMATION

Flight Status: Arrived
Operator: Privately registered:
United States
More flights under this callsign
Pilot: Lee W. (44)
Aircraft: CANADAIR CL-600 CRJ-200
(CRJ2)
More flights by this aircraft type
Origin: KMCC McClellan
United States
Destination: KSBX Shelby
United States
More flights between these airports :: More routes between these airports
Route: SAC J32 FMG J7 GTF
File this flight plan on PilotEdge
Remarks:
Altitude:
(Current/Filed)
35,000ft
Speed:
(Current/Filed)
425kts
Departed: 10-Nov-12 02:46 AM
Arrived: 10-Nov-12 04:58 AM
Distance/Time
Traveled:
721nm/2:11
Distance/Time
To Go:
Arrived

Flight Plot

Page will automatically refresh every two minutes.


Map Options




Map Legend


Flown Route
Filed Route
Departure Airport
Arrival Airport
Navaid (VOR, NDB)
Fix

Horizontal Profiles

Position Reports

Time Latitude Longitude Heading Altitude Ground
Speed
10-Nov-12 02:39 38.682028 -121.400586 180 80ft 0kts
10-Nov-12 02:40 38.682028 -121.400586 180 80ft 0kts
10-Nov-12 02:41 38.682028 -121.400586 180 80ft 0kts
10-Nov-12 02:42 38.682028 -121.400586 180 80ft 0kts
10-Nov-12 02:43 38.682028 -121.400586 180 80ft 0kts
10-Nov-12 02:44 38.682028 -121.400586 180 80ft 0kts
10-Nov-12 02:45 38.675974 -121.400561 179 80ft 108kts
10-Nov-12 02:46 38.634388 -121.401401 182 595ft 241kts
10-Nov-12 02:47 38.591056 -121.436584 225 3532ft 241kts
10-Nov-12 02:48 38.540884 -121.483936 209 5759ft 267kts
10-Nov-12 02:49 38.481921 -121.483669 121 8213ft 272kts
10-Nov-12 02:50 38.510086 -121.414628 36 10395ft 287kts
10-Nov-12 02:51 38.563661 -121.343997 53 11408ft 334kts
10-Nov-12 02:52 38.615663 -121.256652 55 13387ft 341kts
10-Nov-12 02:53 38.669554 -121.163749 55 15184ft 349kts
10-Nov-12 02:54 38.723671 -121.070066 55 16756ft 356kts
10-Nov-12 02:55 38.781907 -120.968992 55 18130ft 365kts
10-Nov-12 02:56 38.836123 -120.875234 55 19215ft 374kts
10-Nov-12 02:57 38.896174 -120.771918 55 20386ft 380kts
10-Nov-12 02:58 38.957762 -120.665296 53 21522ft 384kts
10-Nov-12 02:59 39.021195 -120.555256 53 22309ft 394kts
10-Nov-12 03:00 39.082723 -120.448073 53 23110ft 400kts
10-Nov-12 03:01 39.142467 -120.343646 52 23687ft 408kts
10-Nov-12 03:02 39.207396 -120.229894 61 22445ft 423kts
10-Nov-12 03:03 39.267469 -120.118664 48 22718ft 381kts
10-Nov-12 03:04 39.327320 -120.018139 52 23863ft 368kts
10-Nov-12 03:05 39.383633 -119.918701 52 24647ft 369kts
10-Nov-12 03:06 39.438468 -119.822650 52 25332ft 373kts
10-Nov-12 03:07 39.497959 -119.716797 52 26008ft 377kts
10-Nov-12 03:08 39.570839 -119.635797 24 26604ft 374kts
10-Nov-12 03:09 39.664612 -119.582039 22 27215ft 377kts
10-Nov-12 03:10 39.760521 -119.528385 22 27804ft 380kts
10-Nov-12 03:11 39.856972 -119.474275 23 28308ft 384kts
10-Nov-12 03:12 39.953768 -119.419813 23 28798ft 387kts
10-Nov-12 03:13 40.050652 -119.365130 23 29267ft 390kts
10-Nov-12 03:14 40.149444 -119.309183 22 29592ft 395kts
10-Nov-12 03:15 40.249811 -119.252237 22 29872ft 402kts
10-Nov-12 03:16 40.351672 -119.194205 22 30347ft 405kts
10-Nov-12 03:17 40.454837 -119.135237 23 30904ft 409kts
10-Nov-12 03:18 40.556603 -119.076864 23 31414ft 413kts
10-Nov-12 03:19 40.659703 -119.017231 23 31888ft 416kts
10-Nov-12 03:20 40.764977 -118.956419 23 32335ft 419kts
10-Nov-12 03:21 40.869217 -118.896016 23 32740ft 422kts
10-Nov-12 03:22 40.973905 -118.836141 23 33143ft 423kts
10-Nov-12 03:23 41.080841 -118.773798 23 33492ft 426kts
10-Nov-12 03:24 41.188345 -118.710828 23 33821ft 428kts
10-Nov-12 03:25 41.296311 -118.647383 23 34098ft 430kts
10-Nov-12 03:26 41.404809 -118.583370 23 34364ft 432kts
10-Nov-12 03:27 41.513538 -118.518970 23 34625ft 433kts
10-Nov-12 03:28 41.621063 -118.455091 23 34855ft 434kts
10-Nov-12 03:29 41.731215 -118.389423 23 34841ft 441kts
10-Nov-12 03:30 41.841917 -118.323080 23 34831ft 446kts
10-Nov-12 03:31 41.947824 -118.259461 23 34838ft 442kts
10-Nov-12 03:32 42.057598 -118.193240 23 34838ft 436kts
10-Nov-12 03:33 42.167462 -118.126713 23 34839ft 432kts
10-Nov-12 03:34 42.276289 -118.060563 23 34839ft 429kts
10-Nov-12 03:35 42.384210 -117.994713 23 34839ft 428kts
10-Nov-12 03:36 42.491992 -117.928699 23 34839ft 427kts
10-Nov-12 03:37 42.585976 -117.868558 39 34820ft 424kts
10-Nov-12 03:38 42.661673 -117.747881 51 34840ft 422kts
10-Nov-12 03:39 42.734707 -117.623495 51 34840ft 423kts
10-Nov-12 03:40 42.807540 -117.498780 51 34840ft 423kts
10-Nov-12 03:41 42.880381 -117.373519 51 34840ft 423kts
10-Nov-12 03:42 42.953098 -117.247911 51 34849ft 423kts
10-Nov-12 03:43 43.025453 -117.122364 50 34886ft 422kts
10-Nov-12 03:44 43.097747 -116.996540 50 34900ft 422kts
10-Nov-12 03:45 43.169528 -116.871740 50 34899ft 423kts
10-Nov-12 03:46 43.241840 -116.745683 51 34899ft 424kts
10-Nov-12 03:47 43.314049 -116.618324 51 34899ft 425kts
10-Nov-12 03:48 43.386175 -116.490515 51 34899ft 426kts
10-Nov-12 03:49 43.458076 -116.362575 51 34898ft 426kts
10-Nov-12 03:50 43.529604 -116.234766 51 34881ft 426kts
10-Nov-12 03:51 43.606088 -116.118125 45 34870ft 426kts
10-Nov-12 03:52 43.688594 -116.003255 44 34870ft 426kts
10-Nov-12 03:53 43.770267 -115.889404 44 34869ft 426kts
10-Nov-12 03:54 43.852206 -115.775993 45 34870ft 426kts
10-Nov-12 03:55 43.934737 -115.659910 45 34870ft 426kts
10-Nov-12 03:56 44.017311 -115.543239 45 34870ft 426kts
10-Nov-12 03:57 44.099864 -115.426096 45 34868ft 426kts
10-Nov-12 03:58 44.182312 -115.308588 45 34800ft 428kts
10-Nov-12 03:59 44.265083 -115.190144 44 34733ft 430kts
10-Nov-12 04:00 44.346366 -115.073339 44 34730ft 430kts
10-Nov-12 04:01 44.428161 -114.955289 44 34730ft 430kts
10-Nov-12 04:02 44.523173 -114.818951 45 34729ft 431kts
10-Nov-12 04:03 44.590903 -114.720499 45 34730ft 431kts
10-Nov-12 04:04 44.672783 -114.600799 45 34730ft 431kts
10-Nov-12 04:05 44.754665 -114.480572 45 34729ft 432kts
10-Nov-12 04:06 44.836059 -114.360491 45 34735ft 432kts
10-Nov-12 04:07 44.917151 -114.240447 45 34775ft 429kts
10-Nov-12 04:08 44.995583 -114.123773 46 34798ft 425kts
10-Nov-12 04:09 45.084821 -114.017747 37 34798ft 424kts
10-Nov-12 04:10 45.178386 -113.919622 36 34798ft 422kts
10-Nov-12 04:11 45.270254 -113.824493 36 34799ft 421kts
10-Nov-12 04:12 45.363806 -113.726017 37 34799ft 420kts
10-Nov-12 04:13 45.457312 -113.627020 37 34799ft 420kts
10-Nov-12 04:14 45.550021 -113.528454 37 34799ft 420kts
10-Nov-12 04:15 45.640798 -113.431442 37 34804ft 421kts
10-Nov-12 04:16 45.733808 -113.331686 35 34820ft 421kts
10-Nov-12 04:17 45.826579 -113.231891 35 34841ft 423kts
10-Nov-12 04:18 45.919155 -113.131778 35 34841ft 425kts
10-Nov-12 04:19 46.011641 -113.031334 35 34840ft 426kts
10-Nov-12 04:20 46.105459 -112.929000 35 34840ft 427kts
10-Nov-12 04:21 46.197137 -112.829902 36 34839ft 428kts
10-Nov-12 04:22 46.290839 -112.726968 36 34839ft 428kts
10-Nov-12 04:23 46.383381 -112.624718 36 34635ft 424kts
10-Nov-12 04:24 46.474785 -112.523233 36 33167ft 418kts
10-Nov-12 04:25 46.562751 -112.425188 35 31977ft 407kts
10-Nov-12 04:26 46.647673 -112.330141 35 30834ft 399kts
10-Nov-12 04:27 46.729897 -112.237745 35 29723ft 392kts
10-Nov-12 04:28 46.808099 -112.149531 35 28645ft 388kts
10-Nov-12 04:29 46.879747 -112.068414 35 27701ft 384kts
10-Nov-12 04:30 46.949987 -111.988595 35 26926ft 378kts
10-Nov-12 04:31 47.011545 -111.918454 35 26184ft 375kts
10-Nov-12 04:32 47.092200 -111.914412 350 25278ft 358kts
10-Nov-12 04:33 47.185296 -111.918867 358 24446ft 351kts
10-Nov-12 04:34 47.275769 -111.916211 359 22953ft 341kts
10-Nov-12 04:35 47.366404 -111.913135 0 21508ft 330kts
10-Nov-12 04:36 47.455156 -111.910036 0 20017ft 323kts
10-Nov-12 04:37 47.540935 -111.920915 347 18595ft 315kts
10-Nov-12 04:38 47.621218 -111.944761 347 17350ft 309kts
10-Nov-12 04:39 47.702743 -111.969081 347 16110ft 303kts
10-Nov-12 04:40 47.784106 -111.992984 349 14236ft 316kts
10-Nov-12 04:41 47.832610 -111.929234 45 13591ft 297kts
10-Nov-12 04:42 47.814545 -111.931390 176 5418ft 274kts
10-Nov-12 04:43 47.749155 -111.943729 227 7714ft 236kts
10-Nov-12 04:44 47.774318 -112.008671 347 8016ft 258kts
10-Nov-12 04:45 47.847805 -112.030720 347 8004ft 282kts
10-Nov-12 04:46 47.923815 -112.014443 17 7998ft 290kts
10-Nov-12 04:47 47.999366 -111.973370 17 7994ft 290kts
10-Nov-12 04:48 48.074877 -111.931937 17 7991ft 289kts
10-Nov-12 04:49 48.150099 -111.890503 17 7995ft 288kts
10-Nov-12 04:50 48.224585 -111.849265 17 7989ft 287kts
10-Nov-12 04:51 48.298793 -111.807616 17 7981ft 285kts
10-Nov-12 04:52 48.371980 -111.766500 17 7219ft 272kts
10-Nov-12 04:53 48.427523 -111.734041 17 7378ft 217kts
10-Nov-12 04:54 48.476039 -111.760519 318 6392ft 177kts
10-Nov-12 04:55 48.507463 -111.812551 313 4681ft 160kts
10-Nov-12 04:56 48.533136 -111.857646 312 3552ft 129kts
10-Nov-12 04:57 48.542257 -111.874512 309 3448ft 4kts
10-Nov-12 04:58 48.541903 -111.874949 129 3448ft 11kts
10-Nov-12 04:59 48.539869 -111.871143 129 3448ft 5kts
10-Nov-12 05:00 48.539840 -111.871088 129 3448ft 0kts
10-Nov-12 05:01 48.539840 -111.871088 129 3448ft 0kts
10-Nov-12 05:02 48.539840 -111.871088 129 3448ft 0kts
10-Nov-12 05:03 48.539840 -111.871088 129 3448ft 0kts
10-Nov-12 05:04 48.539840 -111.871088 129 3448ft 0kts

Navigation Log

Ident Type
Flight plan parsing failed, navigation log unavailable